createdAt,value
2018-10-21T00:00:06.710Z,72.52
2018-10-21T00:01:06.843Z,72.81
2018-10-21T00:02:07.018Z,73.00
2018-10-21T00:04:39.436Z,73.06
2018-10-21T00:05:39.566Z,73.15
2018-10-21T00:06:39.728Z,73.15
2018-10-21T00:07:39.855Z,73.15
2018-10-21T00:08:39.991Z,73.15
2018-10-21T00:09:40.167Z,72.86
2018-10-21T00:10:40.322Z,73.25
2018-10-21T00:11:40.448Z,73.72
2018-10-21T00:12:40.574Z,73.82
2018-10-21T00:13:40.704Z,73.91
2018-10-21T00:14:40.866Z,73.91
2018-10-21T00:15:41.141Z,73.72
2018-10-21T00:16:41.158Z,73.53
2018-10-21T00:17:41.298Z,73.15
2018-10-21T00:18:41.467Z,73.25
2018-10-21T00:19:41.597Z,73.72
2018-10-21T00:20:41.733Z,73.82
2018-10-21T00:21:41.867Z,74.10
2018-10-21T00:22:42.013Z,74.01
2018-10-21T00:23:42.129Z,73.91
2018-10-21T00:24:42.269Z,74.10
2018-10-21T00:25:43.162Z,73.91
2018-10-21T00:26:42.606Z,73.44
2018-10-21T00:27:42.729Z,73.15
2018-10-21T00:28:42.936Z,73.91
2018-10-21T00:29:42.944Z,73.63
2018-10-21T00:30:43.111Z,73.63
2018-10-21T00:31:43.257Z,73.91
2018-10-21T00:32:43.385Z,73.72
2018-10-21T00:33:43.583Z,72.86
2018-10-21T00:34:43.676Z,73.06
2018-10-21T00:35:43.802Z,73.15
2018-10-21T00:36:43.934Z,72.86
2018-10-21T00:37:44.106Z,73.06
2018-10-21T00:38:44.208Z,73.44
2018-10-21T00:39:44.343Z,73.34
2018-10-21T00:40:44.472Z,72.49
2018-10-21T00:41:44.612Z,72.49
2018-10-21T00:42:44.745Z,72.67
2018-10-21T00:43:44.871Z,72.58
2018-10-21T00:44:45.005Z,72.20
2018-10-21T00:45:45.145Z,72.30
2018-10-21T00:46:45.266Z,72.20
2018-10-21T00:47:45.435Z,72.49
2018-10-21T00:48:45.590Z,72.49
2018-10-21T00:49:45.726Z,72.30
2018-10-21T00:50:45.848Z,73.15
2018-10-21T00:51:45.984Z,72.96
2018-10-21T00:52:46.113Z,73.11
2018-10-21T00:53:46.247Z,73.06
2018-10-21T00:54:46.379Z,73.30
2018-10-21T00:55:46.507Z,73.15
2018-10-21T00:56:46.635Z,73.69
2018-10-21T00:57:46.772Z,73.63
2018-10-21T00:58:46.903Z,74.10
2018-10-21T00:59:47.037Z,73.91
2018-10-21T01:00:47.165Z,74.07
2018-10-21T01:01:47.297Z,74.10
2018-10-21T01:02:47.427Z,73.88
2018-10-21T01:03:47.554Z,73.82
2018-10-21T01:04:47.689Z,74.26
2018-10-21T01:05:47.824Z,74.35
2018-10-21T01:06:47.958Z,74.63
2018-10-21T01:07:48.090Z,74.73
2018-10-21T01:08:48.221Z,75.02
2018-10-21T01:09:48.358Z,74.73
2018-10-21T01:10:48.498Z,73.78
2018-10-21T01:11:48.617Z,73.49
2018-10-21T01:12:48.758Z,73.78
2018-10-21T01:13:48.880Z,73.49
2018-10-21T01:14:49.755Z,73.78
2018-10-21T01:15:49.135Z,73.30
2018-10-21T01:16:49.265Z,72.92
2018-10-21T01:17:49.402Z,73.30
2018-10-21T01:18:49.528Z,72.92
2018-10-21T01:19:49.664Z,73.11
2018-10-21T01:20:49.792Z,73.02
2018-10-21T01:21:49.926Z,73.11
2018-10-21T01:22:50.059Z,73.21
2018-10-21T01:23:50.189Z,73.02
2018-10-21T01:24:50.315Z,73.02
2018-10-21T01:25:50.448Z,73.02
2018-10-21T01:26:50.580Z,72.83
2018-10-21T01:27:50.710Z,72.83
2018-10-21T01:28:50.842Z,73.78
2018-10-21T01:29:50.976Z,73.78
2018-10-21T01:30:51.106Z,74.07
2018-10-21T01:31:51.268Z,73.97
2018-10-21T01:32:51.396Z,73.88
2018-10-21T01:33:51.527Z,73.59
2018-10-21T01:34:51.664Z,73.97
2018-10-21T01:35:51.788Z,74.07
2018-10-21T01:36:51.965Z,73.69
2018-10-21T01:37:52.130Z,73.11
2018-10-21T01:38:52.189Z,73.11
2018-10-21T01:39:52.321Z,73.78
2018-10-21T01:40:53.259Z,73.59
2018-10-21T01:41:52.614Z,73.59
2018-10-21T01:42:52.749Z,73.97
2018-10-21T01:43:53.754Z,73.78
2018-10-21T01:44:53.045Z,73.59
2018-10-21T01:45:53.180Z,74.16
2018-10-21T01:46:53.312Z,73.59
2018-10-21T01:47:53.448Z,73.40
2018-10-21T01:48:53.577Z,73.78
2018-10-21T01:49:53.713Z,73.69
2018-10-21T01:50:53.871Z,74.16
2018-10-21T01:51:53.973Z,73.97
2018-10-21T01:52:54.101Z,73.78
2018-10-21T01:53:54.238Z,74.16
2018-10-21T01:54:54.368Z,74.63
2018-10-21T01:55:54.551Z,74.35
2018-10-21T01:56:54.630Z,74.82
2018-10-21T01:57:54.761Z,74.92
2018-10-21T01:58:54.886Z,74.73
2018-10-21T01:59:55.025Z,75.02
2018-10-21T02:00:55.165Z,74.82
2018-10-21T02:01:55.293Z,75.40
2018-10-21T02:02:55.460Z,75.49
2018-10-21T02:03:55.556Z,75.30
2018-10-21T02:04:55.687Z,75.40
2018-10-21T02:05:55.817Z,75.30
2018-10-21T02:06:55.955Z,75.21
2018-10-21T02:07:56.080Z,75.59
2018-10-21T02:08:56.216Z,75.21
2018-10-21T02:09:56.340Z,75.78
2018-10-21T02:10:56.474Z,75.30
2018-10-21T02:11:56.618Z,75.49
2018-10-21T02:12:56.752Z,75.40
2018-10-21T02:13:56.882Z,75.62
2018-10-21T02:14:57.028Z,75.40
2018-10-21T02:15:57.143Z,75.34
2018-10-21T02:16:57.275Z,75.53
2018-10-21T02:17:57.406Z,75.49
2018-10-21T02:18:57.546Z,75.59
2018-10-21T02:19:57.672Z,75.78
2018-10-21T02:20:57.830Z,75.96
2018-10-21T02:21:57.934Z,76.54
2018-10-21T02:22:58.071Z,77.01
2018-10-21T02:23:58.205Z,76.92
2018-10-21T02:24:58.343Z,76.82
2018-10-21T02:25:58.473Z,77.01
2018-10-21T02:26:58.650Z,76.82
2018-10-21T02:27:58.742Z,76.63
2018-10-21T02:28:58.870Z,76.35
2018-10-21T02:29:59.035Z,75.78
2018-10-21T02:32:31.116Z,75.96
2018-10-21T02:33:31.341Z,76.06
2018-10-21T02:34:31.379Z,75.96
2018-10-21T02:35:31.511Z,76.63
2018-10-21T02:36:31.642Z,76.44
2018-10-21T02:37:31.766Z,76.44
2018-10-21T02:38:31.906Z,76.35
2018-10-21T02:39:32.039Z,76.25
2018-10-21T02:40:32.170Z,76.44
2018-10-21T02:41:32.303Z,76.44
2018-10-21T02:42:32.438Z,76.54
2018-10-21T02:43:32.564Z,76.44
2018-10-21T02:44:32.703Z,76.54
2018-10-21T02:45:32.833Z,76.44
2018-10-21T02:46:33.010Z,76.44
2018-10-21T02:47:33.145Z,76.35
2018-10-21T02:48:33.276Z,76.25
2018-10-21T02:49:33.406Z,76.44
2018-10-21T02:50:33.543Z,76.25
2018-10-21T02:51:33.677Z,76.35
2018-10-21T02:52:33.802Z,76.35
2018-10-21T02:53:33.933Z,76.25
2018-10-21T02:54:34.062Z,76.35
2018-10-21T02:55:34.198Z,76.44
2018-10-21T02:56:34.326Z,76.48
2018-10-21T02:57:34.461Z,76.92
2018-10-21T02:58:34.598Z,76.73
2018-10-21T02:59:34.725Z,76.96
2018-10-21T03:00:34.861Z,76.73
2018-10-21T03:01:34.993Z,77.11
2018-10-21T03:02:35.128Z,77.68
2018-10-21T03:03:35.263Z,77.39
2018-10-21T03:04:35.394Z,78.06
2018-10-21T03:05:35.523Z,78.06
2018-10-21T03:06:35.655Z,77.87
2018-10-21T03:07:35.787Z,77.43
2018-10-21T03:08:35.913Z,77.68
2018-10-21T03:09:36.053Z,77.20
2018-10-21T03:10:36.181Z,77.49
2018-10-21T03:11:36.315Z,77.68
2018-10-21T03:12:36.528Z,77.77
2018-10-21T03:13:36.536Z,77.68
2018-10-21T03:14:36.664Z,77.77
2018-10-21T03:15:36.791Z,77.68
2018-10-21T03:16:36.922Z,77.58
2018-10-21T03:17:37.054Z,77.77
2018-10-21T03:18:37.179Z,78.06
2018-10-21T03:19:37.315Z,78.25
2018-10-21T03:20:37.445Z,78.16
2018-10-21T03:21:37.578Z,77.87
2018-10-21T03:22:37.711Z,77.87
2018-10-21T03:23:37.845Z,77.87
2018-10-21T03:24:37.973Z,78.16
2018-10-21T03:25:38.105Z,77.77
2018-10-21T03:26:38.232Z,78.29
2018-10-21T03:27:38.365Z,78.34
2018-10-21T03:28:38.503Z,78.06
2018-10-21T03:29:38.714Z,78.06
2018-10-21T03:30:38.725Z,78.53
2018-10-21T03:31:38.853Z,78.63
2018-10-21T03:32:38.982Z,79.49
2018-10-21T03:33:39.252Z,80.05
2018-10-21T03:34:39.241Z,80.05
2018-10-21T03:35:39.377Z,80.15
2018-10-21T03:36:39.530Z,80.15
2018-10-21T03:37:39.663Z,79.77
2018-10-21T03:38:39.793Z,80.05
2018-10-21T03:39:39.920Z,80.15
2018-10-21T03:40:40.052Z,79.96
2018-10-21T03:41:40.188Z,80.02
2018-10-21T03:42:40.319Z,80.21
2018-10-21T03:43:40.460Z,80.96
2018-10-21T03:44:40.601Z,81.25
2018-10-21T03:45:40.733Z,81.25
2018-10-21T03:46:40.868Z,81.54
2018-10-21T03:47:40.994Z,81.25
2018-10-21T03:48:41.133Z,81.25
2018-10-21T03:49:41.269Z,81.25
2018-10-21T03:50:41.399Z,81.44
2018-10-21T03:51:41.530Z,81.25
2018-10-21T03:52:41.659Z,81.16
2018-10-21T03:53:41.793Z,81.35
2018-10-21T03:54:41.929Z,81.54
2018-10-21T03:55:42.060Z,81.63
2018-10-21T03:56:42.195Z,81.63
2018-10-21T03:57:42.340Z,82.01
2018-10-21T03:58:42.471Z,82.26
2018-10-21T03:59:42.604Z,82.64
2018-10-21T04:00:42.760Z,83.20
2018-10-21T04:01:42.888Z,83.11
2018-10-21T04:02:43.017Z,83.78
2018-10-21T04:03:43.151Z,83.68
2018-10-21T04:04:43.288Z,83.49
2018-10-21T04:05:43.414Z,84.25
2018-10-21T04:06:43.547Z,84.16
2018-10-21T04:07:43.672Z,83.97
2018-10-21T04:08:43.818Z,83.62
2018-10-21T04:09:43.943Z,83.25
2018-10-21T04:10:44.078Z,83.15
2018-10-21T04:11:44.215Z,83.34
2018-10-21T04:12:44.350Z,83.25
2018-10-21T04:13:44.479Z,83.06
2018-10-21T04:14:44.611Z,82.20
2018-10-21T04:15:44.753Z,82.49
2018-10-21T04:16:44.890Z,82.10
2018-10-21T04:17:45.036Z,81.54
2018-10-21T04:18:45.170Z,81.35
2018-10-21T04:19:45.303Z,81.29
2018-10-21T04:20:45.432Z,81.01
2018-10-21T04:21:45.563Z,81.01
2018-10-21T04:22:45.696Z,80.63
2018-10-21T04:23:45.828Z,81.10
2018-10-21T04:24:45.964Z,80.44
2018-10-21T04:25:46.096Z,80.63
2018-10-21T04:26:46.224Z,80.53
2018-10-21T04:27:46.356Z,79.86
2018-10-21T04:28:46.489Z,80.34
2018-10-21T04:29:46.621Z,80.15
2018-10-21T04:30:46.750Z,79.96
2018-10-21T04:31:46.879Z,79.49
2018-10-21T04:32:47.007Z,79.30
2018-10-21T04:33:47.144Z,79.68
2018-10-21T04:34:47.273Z,78.82
2018-10-21T04:35:47.404Z,78.53
2018-10-21T04:36:47.558Z,78.91
2018-10-21T04:37:47.690Z,78.82
2018-10-21T04:38:47.817Z,78.91
2018-10-21T04:39:47.949Z,78.91
2018-10-21T04:40:48.084Z,78.91
2018-10-21T04:41:48.218Z,78.63
2018-10-21T04:42:48.348Z,78.72
2018-10-21T04:43:48.484Z,78.53
2018-10-21T04:44:48.619Z,78.06
2018-10-21T04:45:48.800Z,78.25
2018-10-21T04:46:49.039Z,78.25
2018-10-21T04:47:49.058Z,78.06
2018-10-21T04:48:49.189Z,77.77
2018-10-21T04:49:49.319Z,77.87
2018-10-21T04:50:49.465Z,78.16
2018-10-21T04:51:49.589Z,78.25
2018-10-21T04:52:49.721Z,78.06
2018-10-21T04:53:49.848Z,77.68
2018-10-21T04:54:50.002Z,77.58
2018-10-21T04:55:50.124Z,77.97
2018-10-21T04:56:50.253Z,77.77
2018-10-21T04:57:50.388Z,77.58
2018-10-21T04:58:50.519Z,77.30
2018-10-21T04:59:50.657Z,77.20
2018-10-21T05:00:50.836Z,76.92
2018-10-21T05:01:50.927Z,77.49
2018-10-21T05:02:51.061Z,77.20
2018-10-21T05:03:51.192Z,77.77
2018-10-21T05:04:52.094Z,78.06
2018-10-21T05:05:51.493Z,78.06
2018-10-21T05:06:51.619Z,77.58
2018-10-21T05:07:51.744Z,77.87
2018-10-21T05:08:51.882Z,77.87
2018-10-21T05:09:52.011Z,77.97
2018-10-21T05:10:52.139Z,78.16
2018-10-21T05:11:52.268Z,78.06
2018-10-21T05:12:52.424Z,77.97
2018-10-21T05:13:52.560Z,77.87
2018-10-21T05:14:52.680Z,78.25
2018-10-21T05:15:52.815Z,78.34
2018-10-21T05:16:52.947Z,78.06
2018-10-21T05:17:53.078Z,77.97
2018-10-21T05:18:53.210Z,77.87
2018-10-21T05:19:53.345Z,78.34
2018-10-21T05:20:53.474Z,78.25
2018-10-21T05:21:53.606Z,78.59
2018-10-21T05:22:53.732Z,78.59
2018-10-21T05:23:53.958Z,78.50
2018-10-21T05:24:54.002Z,78.78
2018-10-21T05:25:54.137Z,78.88
2018-10-21T05:26:54.265Z,78.69
2018-10-21T05:27:54.454Z,78.78
2018-10-21T05:28:54.534Z,78.78
2018-10-21T05:29:54.669Z,79.30
2018-10-21T05:30:54.800Z,79.20
2018-10-21T05:31:54.919Z,78.78
2018-10-21T05:32:55.048Z,78.34
2018-10-21T05:33:55.188Z,78.63
2018-10-21T05:34:55.341Z,78.82
2018-10-21T05:35:55.467Z,79.01
2018-10-21T05:36:55.599Z,78.63
2018-10-21T05:37:55.802Z,78.72
2018-10-21T05:38:55.892Z,78.72
2018-10-21T05:39:56.036Z,78.82
2018-10-21T05:40:56.148Z,78.44
2018-10-21T05:41:56.276Z,78.34
2018-10-21T05:42:56.404Z,79.58
2018-10-21T05:43:56.538Z,79.30
2018-10-21T05:44:56.680Z,79.30
2018-10-21T05:45:56.836Z,79.30
2018-10-21T05:46:56.951Z,79.20
2018-10-21T05:47:57.102Z,79.30
2018-10-21T05:48:57.233Z,79.49
2018-10-21T05:49:57.354Z,78.72
2018-10-21T05:50:57.497Z,78.53
2018-10-21T05:51:57.667Z,78.82
2018-10-21T05:52:57.746Z,78.82
2018-10-21T05:53:57.882Z,78.91
2018-10-21T05:54:58.011Z,78.63
2018-10-21T05:55:58.147Z,78.53
2018-10-21T05:56:58.283Z,79.01
2018-10-21T05:57:58.452Z,79.58
2018-10-21T05:58:58.554Z,79.49
2018-10-21T05:59:58.683Z,79.68
2018-10-21T06:00:58.862Z,79.86
2018-10-21T06:01:58.997Z,79.77
2018-10-21T06:02:59.180Z,79.77
2018-10-21T06:03:59.272Z,79.77
2018-10-21T06:04:59.386Z,79.77
2018-10-21T06:05:59.521Z,79.68
2018-10-21T06:06:59.652Z,79.49
2018-10-21T06:07:59.806Z,79.49
2018-10-21T06:08:59.937Z,79.86
2018-10-21T06:10:00.084Z,79.49
2018-10-21T06:11:00.197Z,79.49
2018-10-21T06:12:00.356Z,79.58
2018-10-21T06:13:00.459Z,79.68
2018-10-21T06:14:00.600Z,79.96
2018-10-21T06:15:00.731Z,79.77
2018-10-21T06:16:01.726Z,79.86
2018-10-21T06:17:00.995Z,79.96
2018-10-21T06:18:01.129Z,79.77
2018-10-21T06:19:01.258Z,79.77
2018-10-21T06:20:01.446Z,79.49
2018-10-21T06:21:01.574Z,79.58
2018-10-21T06:22:01.730Z,79.30
2018-10-21T06:23:01.843Z,79.39
2018-10-21T06:24:01.974Z,79.20
2018-10-21T06:25:02.138Z,79.20
2018-10-21T06:26:02.264Z,78.82
2018-10-21T06:27:02.392Z,78.44
2018-10-21T06:28:02.530Z,78.82
2018-10-21T06:29:02.684Z,78.82
2018-10-21T06:30:02.810Z,78.91
2018-10-21T06:31:02.950Z,78.82
2018-10-21T06:32:03.080Z,78.72
2018-10-21T06:33:03.267Z,78.63
2018-10-21T06:34:03.350Z,78.63
2018-10-21T06:35:03.485Z,78.44
2018-10-21T06:36:03.613Z,78.53
2018-10-21T06:37:03.749Z,79.01
2018-10-21T06:38:03.883Z,78.53
2018-10-21T06:39:04.050Z,79.49
2018-10-21T06:40:04.153Z,79.30
2018-10-21T06:41:04.294Z,79.49
2018-10-21T06:42:04.421Z,78.72
2018-10-21T06:43:04.557Z,79.11
2018-10-21T06:44:04.686Z,78.44
2018-10-21T06:45:04.915Z,78.91
2018-10-21T06:46:04.951Z,78.91
2018-10-21T06:47:05.081Z,79.01
2018-10-21T06:48:05.211Z,78.82
2018-10-21T06:49:05.368Z,78.91
2018-10-21T06:50:05.482Z,78.72
2018-10-21T06:51:05.627Z,78.67
2018-10-21T06:52:05.745Z,78.77
2018-10-21T06:53:05.873Z,78.44
2018-10-21T06:54:06.012Z,78.44
2018-10-21T06:55:06.166Z,78.67
2018-10-21T06:56:06.296Z,78.57
2018-10-21T06:57:06.631Z,79.05
2018-10-21T06:58:06.558Z,78.86
2018-10-21T06:59:06.689Z,79.05
2018-10-21T07:00:06.828Z,78.77
2018-10-21T07:01:06.980Z,79.14
2018-10-21T07:02:07.174Z,79.52
2018-10-21T07:03:07.191Z,78.67
2018-10-21T07:04:07.390Z,78.86
2018-10-21T07:05:07.510Z,78.86
2018-10-21T07:06:07.595Z,78.96
2018-10-21T07:07:07.727Z,78.86
2018-10-21T07:08:07.861Z,78.67
2018-10-21T07:09:07.988Z,78.96
2018-10-21T07:10:08.186Z,78.77
2018-10-21T07:11:08.254Z,78.77
2018-10-21T07:12:08.390Z,78.48
2018-10-21T07:13:08.526Z,78.96
2018-10-21T07:14:08.658Z,79.52
2018-10-21T07:15:08.841Z,79.33
2018-10-21T07:16:08.998Z,79.33
2018-10-21T07:17:09.073Z,78.77
2018-10-21T07:18:09.213Z,78.77
2018-10-21T07:19:09.343Z,78.86
2018-10-21T07:20:09.474Z,79.52
2018-10-21T07:21:09.627Z,78.67
2018-10-21T07:22:09.890Z,78.86
2018-10-21T07:23:09.875Z,78.86
2018-10-21T07:24:10.011Z,78.52
2018-10-21T07:25:10.136Z,78.10
2018-10-21T07:26:10.265Z,78.19
2018-10-21T07:27:10.396Z,78.19
2018-10-21T07:28:10.627Z,77.62
2018-10-21T07:29:10.692Z,77.91
2018-10-21T07:30:10.831Z,77.91
2018-10-21T07:31:10.974Z,78.57
2018-10-21T07:32:11.099Z,78.38
2018-10-21T07:33:11.236Z,78.38
2018-10-21T07:34:11.476Z,79.14
2018-10-21T07:35:11.516Z,78.77
2018-10-21T07:36:11.711Z,79.33
2018-10-21T07:37:11.783Z,79.24
2018-10-21T07:38:11.922Z,79.33
2018-10-21T07:39:12.071Z,79.62
2018-10-21T07:40:12.345Z,79.33
2018-10-21T07:41:12.382Z,79.62
2018-10-21T07:42:12.522Z,79.62
2018-10-21T07:43:12.649Z,79.43
2018-10-21T07:44:12.847Z,79.33
2018-10-21T07:45:12.987Z,80.29
2018-10-21T07:46:13.184Z,80.76
2018-10-21T07:47:13.267Z,80.82
2018-10-21T07:48:13.398Z,81.29
2018-10-21T07:49:13.623Z,81.01
2018-10-21T07:50:13.663Z,81.10
2018-10-21T07:51:13.802Z,81.96
2018-10-21T07:52:13.978Z,82.71
2018-10-21T07:53:14.079Z,82.71
2018-10-21T07:54:14.209Z,83.00
2018-10-21T07:55:14.369Z,82.43
2018-10-21T07:56:14.480Z,82.91
2018-10-21T07:57:14.650Z,82.91
2018-10-21T07:58:14.829Z,83.39
2018-10-21T07:59:14.912Z,83.95
2018-10-21T08:00:15.042Z,84.62
2018-10-21T08:01:15.216Z,83.95
2018-10-21T08:02:15.327Z,83.48
2018-10-21T08:03:15.460Z,83.58
2018-10-21T08:04:15.662Z,84.05
2018-10-21T08:05:15.747Z,84.24
2018-10-21T08:06:15.877Z,84.81
2018-10-21T08:07:16.009Z,84.81
2018-10-21T08:08:16.140Z,83.95
2018-10-21T08:09:16.504Z,83.76
2018-10-21T08:10:16.462Z,83.76
2018-10-21T08:11:16.571Z,83.86
2018-10-21T08:12:16.702Z,84.47
2018-10-21T08:13:16.860Z,83.62
2018-10-21T08:14:16.986Z,83.71
2018-10-21T08:15:17.129Z,83.81
2018-10-21T08:16:17.306Z,84.09
2018-10-21T08:17:17.472Z,83.62
2018-10-21T08:18:17.563Z,83.52
2018-10-21T08:19:17.701Z,83.23
2018-10-21T08:20:17.835Z,83.71
2018-10-21T08:21:18.164Z,83.33
2018-10-21T08:22:18.158Z,83.62
2018-10-21T08:23:18.237Z,83.62
2018-10-21T08:24:18.378Z,83.23
2018-10-21T08:25:18.520Z,82.95
2018-10-21T08:26:18.666Z,82.67
2018-10-21T08:27:18.870Z,82.76
2018-10-21T08:28:19.071Z,82.61
2018-10-21T08:29:19.101Z,82.32
2018-10-21T08:30:19.231Z,82.32
2018-10-21T08:31:19.371Z,82.70
2018-10-21T08:32:20.129Z,82.51
2018-10-21T08:34:52.312Z,82.51
2018-10-21T08:35:52.479Z,83.09
2018-10-21T08:36:52.555Z,82.80
2018-10-21T08:37:52.688Z,83.37
2018-10-21T08:38:52.839Z,82.61
2018-10-21T08:39:52.973Z,82.14
2018-10-21T08:40:53.097Z,81.95
2018-10-21T08:41:53.235Z,82.42
2018-10-21T08:42:53.369Z,81.95
2018-10-21T08:43:53.511Z,82.27
2018-10-21T08:44:53.649Z,81.98
2018-10-21T08:45:53.783Z,82.75
2018-10-21T08:46:53.917Z,82.37
2018-10-21T08:47:54.043Z,81.98
2018-10-21T08:48:54.185Z,81.60
2018-10-21T08:49:54.394Z,80.65
2018-10-21T08:50:54.452Z,80.65
2018-10-21T08:51:54.645Z,80.84
2018-10-21T08:52:54.767Z,80.75
2018-10-21T08:53:54.902Z,81.03
2018-10-21T08:54:55.086Z,81.89
2018-10-21T08:55:55.295Z,81.65
2018-10-21T08:56:55.356Z,80.98
2018-10-21T08:57:55.496Z,81.07
2018-10-21T08:58:56.185Z,80.69
2018-10-21T08:59:55.733Z,80.88
2018-10-21T09:00:55.886Z,80.79
2018-10-21T09:01:56.012Z,81.07
2018-10-21T09:02:56.146Z,81.26
2018-10-21T09:03:56.330Z,80.69
2018-10-21T09:04:56.416Z,80.02
2018-10-21T09:05:56.549Z,79.46
2018-10-21T09:06:56.729Z,78.64
2018-10-21T09:07:56.817Z,79.11
2018-10-21T09:08:56.963Z,79.11
2018-10-21T09:09:57.178Z,78.92
2018-10-21T09:10:57.259Z,79.02
2018-10-21T09:11:57.363Z,78.92
2018-10-21T09:12:57.558Z,78.64
2018-10-21T09:13:57.679Z,78.92
2018-10-21T09:14:57.842Z,78.67
2018-10-21T09:15:57.944Z,77.82
2018-10-21T09:16:58.694Z,77.34
2018-10-21T09:17:58.247Z,76.67
2018-10-21T09:18:58.433Z,77.06
2018-10-21T09:19:58.517Z,76.67
2018-10-21T09:20:58.647Z,76.48
2018-10-21T09:21:58.781Z,76.96
2018-10-21T09:22:58.913Z,76.29
2018-10-21T09:23:59.049Z,76.29
2018-10-21T09:24:59.230Z,76.67
2018-10-21T09:25:59.333Z,76.10
2018-10-21T09:26:59.485Z,76.20
2018-10-21T09:27:59.650Z,76.67
2018-10-21T09:28:59.789Z,76.67
2018-10-21T09:29:59.917Z,76.20
2018-10-21T09:31:00.141Z,76.29
2018-10-21T09:32:00.157Z,76.20
2018-10-21T09:33:00.310Z,76.01
2018-10-21T09:34:00.593Z,76.01
2018-10-21T09:35:00.587Z,75.53
2018-10-21T09:36:00.721Z,75.81
2018-10-21T09:37:00.957Z,75.91
2018-10-21T09:38:00.961Z,76.20
2018-10-21T09:39:01.101Z,76.29
2018-10-21T09:40:01.272Z,76.29
2018-10-21T09:41:01.375Z,76.39
2018-10-21T09:42:01.547Z,76.86
2018-10-21T09:43:01.699Z,76.48
2018-10-21T09:44:01.777Z,77.06
2018-10-21T09:45:01.934Z,76.77
2018-10-21T09:46:02.092Z,76.23
2018-10-21T09:47:02.198Z,76.71
2018-10-21T09:48:02.340Z,77.00
2018-10-21T09:49:02.537Z,77.09
2018-10-21T09:50:02.659Z,76.33
2018-10-21T09:51:02.771Z,76.37
2018-10-21T09:52:02.917Z,75.89
2018-10-21T09:53:03.056Z,75.89
2018-10-21T09:54:03.183Z,75.51
2018-10-21T09:55:03.376Z,76.08
2018-10-21T09:56:03.470Z,75.89
2018-10-21T09:57:03.608Z,75.22
2018-10-21T09:58:03.824Z,75.42
2018-10-21T09:59:03.932Z,75.13
2018-10-21T10:00:04.047Z,74.65
2018-10-21T10:01:04.187Z,74.21
2018-10-21T10:02:04.347Z,73.60
2018-10-21T10:03:04.487Z,73.73
2018-10-21T10:04:04.676Z,73.44
2018-10-21T10:05:04.763Z,74.02
2018-10-21T10:06:04.918Z,74.49
2018-10-21T10:07:05.106Z,74.40
2018-10-21T10:08:05.192Z,74.53
2018-10-21T10:09:05.324Z,73.48
2018-10-21T10:10:05.513Z,72.72
2018-10-21T10:11:05.631Z,73.48
2018-10-21T10:12:05.788Z,72.75
2018-10-21T10:13:05.974Z,71.80
2018-10-21T10:14:06.076Z,71.32
2018-10-21T10:15:06.214Z,71.51
2018-10-21T10:16:06.427Z,71.13
2018-10-21T10:17:06.502Z,69.79
2018-10-21T10:18:06.632Z,69.92
2018-10-21T10:19:06.854Z,70.11
2018-10-21T10:20:06.930Z,69.82
2018-10-21T10:21:07.084Z,69.35
2018-10-21T10:22:07.243Z,69.25
2018-10-21T10:23:07.397Z,69.54
2018-10-21T10:24:07.533Z,69.64
2018-10-21T10:25:07.701Z,69.09
2018-10-21T10:26:07.819Z,69.19
2018-10-21T10:27:07.956Z,69.09
2018-10-21T10:28:08.146Z,69.48
2018-10-21T10:29:08.220Z,69.09
2018-10-21T10:30:08.378Z,68.52
2018-10-21T10:31:08.650Z,67.21
2018-10-21T10:32:08.651Z,67.21
2018-10-21T10:33:08.807Z,67.31
2018-10-21T10:34:08.960Z,66.67
2018-10-21T10:35:09.099Z,66.00
2018-10-21T10:36:09.244Z,65.71
2018-10-21T10:37:09.442Z,65.62
2018-10-21T10:38:09.558Z,64.95
2018-10-21T10:39:09.849Z,64.95
2018-10-21T10:40:09.911Z,64.95
2018-10-21T10:41:09.994Z,64.59
2018-10-21T10:42:10.204Z,64.31
2018-10-21T10:43:10.361Z,65.65
2018-10-21T10:44:10.423Z,66.22
2018-10-21T10:45:10.558Z,65.11
2018-10-21T10:46:10.727Z,64.63
2018-10-21T10:47:10.856Z,62.42
2018-10-21T10:48:11.102Z,62.52
2018-10-21T10:49:11.250Z,63.48
2018-10-21T10:50:11.255Z,62.42
2018-10-21T10:51:11.392Z,62.93
2018-10-21T10:52:11.606Z,62.84
2018-10-21T10:53:11.678Z,62.84
2018-10-21T10:54:11.813Z,62.74
2018-10-21T10:55:12.051Z,62.93
2018-10-21T10:56:12.146Z,62.45
2018-10-21T10:57:12.286Z,63.60
2018-10-21T10:58:12.543Z,62.45
2018-10-21T10:59:12.587Z,62.77
2018-10-21T11:00:13.544Z,62.19
2018-10-21T11:01:12.971Z,61.81
2018-10-21T11:02:13.053Z,61.52
2018-10-21T11:03:13.198Z,61.52
2018-10-21T11:04:13.399Z,62.10
2018-10-21T11:05:13.496Z,62.01
2018-10-21T11:06:13.723Z,63.06
2018-10-21T11:07:13.897Z,62.10
2018-10-21T11:08:13.991Z,61.52
2018-10-21T11:09:14.129Z,61.91
2018-10-21T11:10:14.308Z,61.43
2018-10-21T11:11:14.395Z,60.69
2018-10-21T11:12:14.588Z,60.60
2018-10-21T11:13:14.828Z,60.69
2018-10-21T11:14:14.862Z,60.43
2018-10-21T11:15:15.024Z,59.95
2018-10-21T11:16:15.207Z,58.61
2018-10-21T11:17:15.422Z,58.51
2018-10-21T11:18:15.467Z,58.89
2018-10-21T11:19:15.723Z,58.73
2018-10-21T11:20:15.808Z,58.64
2018-10-21T11:21:15.948Z,57.87
2018-10-21T11:22:16.096Z,57.87
2018-10-21T11:23:16.228Z,57.77
2018-10-21T11:24:16.392Z,57.68
2018-10-21T11:25:16.588Z,57.48
2018-10-21T11:26:16.675Z,56.62
2018-10-21T11:27:16.825Z,56.91
2018-10-21T11:28:17.073Z,56.71
2018-10-21T11:29:17.124Z,56.16
2018-10-21T11:30:17.306Z,56.74
2018-10-21T11:31:17.507Z,56.55
2018-10-21T11:32:17.623Z,56.77
2018-10-21T11:33:17.754Z,56.20
2018-10-21T11:34:17.939Z,56.20
2018-10-21T11:35:18.040Z,55.04
2018-10-21T11:36:18.179Z,54.87
2018-10-21T11:37:18.444Z,53.91
2018-10-21T11:38:18.466Z,53.62
2018-10-21T11:39:18.646Z,53.53
2018-10-21T11:40:18.943Z,54.13
2018-10-21T11:41:18.870Z,54.22
2018-10-21T11:42:19.044Z,54.03
2018-10-21T11:43:19.233Z,52.30
2018-10-21T11:44:19.384Z,52.23
2018-10-21T11:45:19.536Z,51.36
2018-10-21T11:46:19.693Z,50.98
2018-10-21T11:47:19.858Z,52.13
2018-10-21T11:48:20.001Z,51.97
2018-10-21T11:49:20.150Z,50.52
2018-10-21T11:50:20.297Z,50.16
2018-10-21T11:51:20.476Z,48.81
2018-10-21T11:52:20.681Z,49.00
2018-10-21T11:53:20.770Z,48.06
2018-10-21T11:54:20.927Z,47.36
2018-10-21T11:55:21.945Z,48.16
2018-10-21T11:56:21.236Z,47.09
2018-10-21T11:57:21.388Z,46.61
2018-10-21T11:58:21.539Z,47.19
2018-10-21T11:59:21.720Z,47.19
2018-10-21T12:00:21.840Z,47.00
2018-10-21T12:01:21.989Z,47.45
2018-10-21T12:02:22.146Z,48.21
2018-10-21T12:03:22.329Z,48.79
2018-10-21T12:04:22.473Z,48.40
2018-10-21T12:05:22.649Z,48.08
2018-10-21T12:06:22.802Z,47.99
2018-10-21T12:07:23.043Z,47.60
2018-10-21T12:08:23.065Z,47.97
2018-10-21T12:09:23.210Z,48.74
2018-10-21T12:10:23.362Z,48.61
2018-10-21T12:11:23.517Z,49.48
2018-10-21T12:12:23.661Z,49.96
2018-10-21T12:13:23.812Z,50.35
2018-10-21T12:14:23.955Z,50.45
2018-10-21T12:15:24.098Z,50.32
2018-10-21T12:16:24.244Z,50.81
2018-10-21T12:17:24.387Z,50.61
2018-10-21T12:18:24.533Z,50.81
2018-10-21T12:19:24.677Z,51.09
2018-10-21T12:20:24.817Z,50.99
2018-10-21T12:21:24.963Z,52.22
2018-10-21T12:22:25.236Z,53.47
2018-10-21T12:23:25.337Z,54.24
2018-10-21T12:24:25.415Z,54.72
2018-10-21T12:25:25.629Z,56.04
2018-10-21T12:26:25.705Z,56.71
2018-10-21T12:27:25.845Z,57.77
2018-10-21T12:28:25.980Z,58.25
2018-10-21T12:29:26.133Z,58.35
2018-10-21T12:30:26.280Z,58.45
2018-10-21T12:31:26.442Z,58.61
2018-10-21T12:32:26.587Z,58.70
2018-10-21T12:33:26.741Z,58.99
2018-10-21T12:34:26.869Z,58.22
2018-10-21T12:35:27.033Z,58.32
2018-10-21T12:36:27.176Z,58.32
2018-10-21T12:37:27.318Z,58.22
2018-10-21T12:38:27.466Z,57.55
2018-10-21T12:39:27.614Z,56.78
2018-10-21T12:40:27.757Z,56.40
2018-10-21T12:41:28.413Z,56.40
2018-10-21T12:42:28.064Z,56.21
2018-10-21T12:43:28.262Z,56.11
2018-10-21T12:44:28.405Z,55.63
2018-10-21T12:45:28.624Z,54.96
2018-10-21T12:46:28.696Z,54.47
2018-10-21T12:47:28.835Z,55.05
2018-10-21T12:48:28.973Z,54.83
2018-10-21T12:49:29.897Z,54.86
2018-10-21T12:50:29.235Z,54.83
2018-10-21T12:51:29.403Z,54.47
2018-10-21T12:52:29.538Z,55.22
2018-10-21T12:53:29.793Z,55.69
2018-10-21T12:54:30.479Z,55.69
2018-10-21T12:55:29.943Z,55.99
2018-10-21T12:56:30.083Z,55.79
2018-10-21T12:57:30.220Z,54.50
2018-10-21T12:58:30.410Z,53.31